createdAt,value
2017-09-23T00:01:21.594Z,32.13
2017-09-23T00:03:49.300Z,35.90
2017-09-23T00:06:16.997Z,35.37
2017-09-23T00:08:44.684Z,34.60
2017-09-23T00:11:12.330Z,33.43
2017-09-23T00:13:39.971Z,34.70
2017-09-23T00:16:08.420Z,35.07
2017-09-23T00:18:36.131Z,34.30
2017-09-23T00:21:03.816Z,39.10
2017-09-23T00:23:32.255Z,38.70
2017-09-23T00:26:00.824Z,37.20
2017-09-23T00:28:28.515Z,36.90
2017-09-23T00:30:56.193Z,39.83
2017-09-23T00:33:23.956Z,40.47
2017-09-23T00:35:51.604Z,37.80
2017-09-23T00:38:19.306Z,39.17
2017-09-23T00:40:46.955Z,38.93
2017-09-23T00:43:14.658Z,39.70
2017-09-23T00:45:42.328Z,39.07
2017-09-23T00:48:10.058Z,42.47
2017-09-23T00:50:38.542Z,41.70
2017-09-23T00:53:06.260Z,40.40
2017-09-23T00:55:33.952Z,43.00
2017-09-23T00:58:01.625Z,45.93
2017-09-23T01:00:29.346Z,43.30
2017-09-23T01:02:57.004Z,41.00
2017-09-23T01:05:24.751Z,42.40
2017-09-23T01:07:52.418Z,41.27
2017-09-23T01:10:20.068Z,45.70
2017-09-23T01:12:47.698Z,43.03
2017-09-23T01:15:16.132Z,44.07
2017-09-23T01:17:43.863Z,46.07
2017-09-23T01:20:11.517Z,41.60
2017-09-23T01:22:39.268Z,43.90
2017-09-23T01:25:07.956Z,44.50
2017-09-23T01:27:36.349Z,44.67
2017-09-23T01:30:04.046Z,43.90
2017-09-23T01:32:31.701Z,41.43
2017-09-23T01:34:59.424Z,45.37
2017-09-23T01:37:27.068Z,43.90
2017-09-23T01:39:54.789Z,44.53
2017-09-23T01:42:22.531Z,47.50
2017-09-23T01:44:50.202Z,48.57
2017-09-23T01:47:17.854Z,48.03
2017-09-23T01:49:45.498Z,48.33
2017-09-23T01:52:14.004Z,50.97
2017-09-23T01:54:41.639Z,53.67
2017-09-23T01:57:10.057Z,49.97
2017-09-23T01:59:37.680Z,52.27
2017-09-23T02:02:06.144Z,54.33
2017-09-23T02:04:33.830Z,54.47
2017-09-23T02:07:01.583Z,53.37
2017-09-23T02:09:29.998Z,57.73
2017-09-23T02:11:57.672Z,53.80
2017-09-23T02:14:25.341Z,54.37
2017-09-23T02:16:53.000Z,60.03
2017-09-23T02:19:20.701Z,59.87
2017-09-23T02:21:48.339Z,60.53
2017-09-23T02:24:16.015Z,53.70
2017-09-23T02:26:43.654Z,60.00
2017-09-23T02:29:11.319Z,55.80
2017-09-23T02:31:38.994Z,58.23
2017-09-23T02:34:06.625Z,56.27
2017-09-23T02:36:34.383Z,61.73
2017-09-23T02:39:02.060Z,60.77
2017-09-23T02:41:29.758Z,60.07
2017-09-23T02:43:57.396Z,56.97
2017-09-23T02:46:25.185Z,58.73
2017-09-23T02:48:53.775Z,60.07
2017-09-23T02:51:22.243Z,60.53
2017-09-23T02:53:49.920Z,58.77
2017-09-23T02:56:19.163Z,60.30
2017-09-23T02:58:46.873Z,61.93
2017-09-23T03:01:14.492Z,64.17
2017-09-23T03:03:42.201Z,62.42
2017-09-23T03:06:09.891Z,62.23
2017-09-23T03:08:37.584Z,60.45
2017-09-23T03:11:05.242Z,65.07
2017-09-23T03:13:32.929Z,62.40
2017-09-23T03:16:00.613Z,62.40
2017-09-23T03:18:29.174Z,66.78
2017-09-23T03:20:56.855Z,61.33
2017-09-23T03:23:24.542Z,66.47
2017-09-23T03:25:52.529Z,62.97
2017-09-23T03:28:20.226Z,64.37
2017-09-23T03:30:47.951Z,65.73
2017-09-23T03:33:15.685Z,64.55
2017-09-23T03:35:44.118Z,69.13
2017-09-23T03:38:11.797Z,64.45
2017-09-23T03:40:39.542Z,63.15
2017-09-23T03:43:07.351Z,63.40
2017-09-23T03:45:35.013Z,61.30
2017-09-23T03:48:02.757Z,59.73
2017-09-23T03:50:30.404Z,60.13
2017-09-23T03:52:58.125Z,62.90
2017-09-23T03:55:25.781Z,61.00
2017-09-23T03:57:54.756Z,59.60
2017-09-23T04:00:22.467Z,55.60
2017-09-23T04:02:51.018Z,59.42
2017-09-23T04:05:20.309Z,57.10
2017-09-23T04:07:48.698Z,56.20
2017-09-23T04:10:16.395Z,55.60
2017-09-23T04:12:44.039Z,52.57
2017-09-23T04:15:11.767Z,56.63
2017-09-23T04:17:39.389Z,53.10
2017-09-23T04:20:07.030Z,54.73
2017-09-23T04:22:34.727Z,53.30
2017-09-23T04:25:02.433Z,54.93
2017-09-23T04:27:30.830Z,56.67
2017-09-23T04:29:58.469Z,53.80
2017-09-23T04:32:26.132Z,54.20
2017-09-23T04:34:54.499Z,55.03
2017-09-23T04:37:22.923Z,57.30
2017-09-23T04:39:50.548Z,57.60
2017-09-23T04:42:18.924Z,56.80
2017-09-23T04:44:47.372Z,55.67
2017-09-23T04:47:14.982Z,59.35
2017-09-23T04:49:42.544Z,56.70
2017-09-23T04:52:10.151Z,57.30
2017-09-23T04:54:37.771Z,56.70
2017-09-23T04:57:05.359Z,61.97
2017-09-23T04:59:33.065Z,58.95
2017-09-23T05:02:00.661Z,55.88
2017-09-23T05:04:28.271Z,60.22
2017-09-23T05:06:55.859Z,58.90
2017-09-23T05:09:24.225Z,56.63
2017-09-23T05:11:52.599Z,54.17
2017-09-23T05:14:20.969Z,52.33
2017-09-23T05:16:49.315Z,51.55
2017-09-23T05:19:16.946Z,49.55
2017-09-23T05:21:44.586Z,50.90
2017-09-23T05:24:12.937Z,53.70
2017-09-23T05:26:40.536Z,49.30
2017-09-23T05:29:08.901Z,48.65
2017-09-23T05:31:36.547Z,49.05
2017-09-23T05:34:04.485Z,51.90
2017-09-23T05:36:32.084Z,51.30
2017-09-23T05:38:59.894Z,48.28
2017-09-23T05:41:27.492Z,48.97
2017-09-23T05:43:55.447Z,46.75
2017-09-23T05:46:23.110Z,48.50
2017-09-23T05:48:50.730Z,47.08
2017-09-23T05:51:18.328Z,44.03
2017-09-23T05:53:45.976Z,45.77
2017-09-23T05:56:13.593Z,45.40
2017-09-23T05:58:41.269Z,41.50
2017-09-23T06:01:08.861Z,45.20
2017-09-23T06:03:36.602Z,39.10
2017-09-23T06:06:05.049Z,39.60
2017-09-23T06:08:32.660Z,38.20
2017-09-23T06:11:00.318Z,35.97
2017-09-23T06:13:27.935Z,41.78
2017-09-23T06:15:55.548Z,37.67
2017-09-23T06:18:23.174Z,35.80
2017-09-23T06:20:50.968Z,37.40
2017-09-23T06:23:18.585Z,41.25
2017-09-23T06:25:46.218Z,41.00
2017-09-23T06:28:13.828Z,38.88
2017-09-23T06:30:41.476Z,37.55
2017-09-23T06:33:09.143Z,39.85
2017-09-23T06:35:37.609Z,36.20
2017-09-23T06:38:05.184Z,37.10
2017-09-23T06:40:32.797Z,34.55
2017-09-23T06:43:01.182Z,31.50
2017-09-23T06:45:28.764Z,30.77
2017-09-23T06:47:56.375Z,26.92
2017-09-23T06:50:24.823Z,27.23
2017-09-23T06:52:53.539Z,25.10
2017-09-23T06:55:21.218Z,27.55
2017-09-23T06:57:49.613Z,25.90
2017-09-23T07:00:17.242Z,28.25
2017-09-23T07:02:45.663Z,27.08
2017-09-23T07:05:13.333Z,25.80
2017-09-23T07:07:41.134Z,25.92
2017-09-23T07:10:08.789Z,27.80
2017-09-23T07:12:36.401Z,27.55
2017-09-23T07:15:04.088Z,26.95
2017-09-23T07:17:31.769Z,26.30
2017-09-23T07:19:59.392Z,28.10
2017-09-23T07:22:27.070Z,26.70
2017-09-23T07:24:54.691Z,26.73
2017-09-23T07:27:23.117Z,25.65
2017-09-23T07:29:50.765Z,25.65
2017-09-23T07:32:18.355Z,26.40
2017-09-23T07:34:46.061Z,28.08
2017-09-23T07:37:14.446Z,26.73
2017-09-23T07:39:42.114Z,28.92
2017-09-23T07:42:09.880Z,26.27
2017-09-23T07:44:37.765Z,27.05
2017-09-23T07:47:05.381Z,26.05
2017-09-23T07:49:33.006Z,27.90
2017-09-23T07:52:00.633Z,27.85
2017-09-23T07:54:28.280Z,28.10
2017-09-23T07:56:55.932Z,26.45
2017-09-23T07:59:24.328Z,27.37
2017-09-23T08:01:52.716Z,27.30
2017-09-23T08:04:20.306Z,25.25
2017-09-23T08:06:47.939Z,28.38
2017-09-23T08:09:15.556Z,26.77
2017-09-23T08:11:43.225Z,27.50
2017-09-23T08:14:10.817Z,25.70
2017-09-23T08:16:38.474Z,28.13
2017-09-23T08:19:06.835Z,25.07
2017-09-23T08:21:35.197Z,21.80
2017-09-23T08:24:02.827Z,24.90
2017-09-23T08:26:30.524Z,24.03
2017-09-23T08:28:58.422Z,25.58
2017-09-23T08:31:26.244Z,24.37
2017-09-23T08:33:53.886Z,24.70
2017-09-23T08:36:21.506Z,21.13
2017-09-23T08:38:49.863Z,20.70
2017-09-23T08:41:17.559Z,22.70
2017-09-23T08:43:45.226Z,20.50
2017-09-23T08:46:13.028Z,20.87
2017-09-23T08:48:43.175Z,21.53
2017-09-23T08:51:11.041Z,24.37
2017-09-23T08:53:38.698Z,22.93
2017-09-23T08:56:06.378Z,25.87
2017-09-23T08:58:33.997Z,28.00
2017-09-23T09:01:01.715Z,24.70
2017-09-23T09:03:29.530Z,26.57
2017-09-23T09:05:57.177Z,28.27
2017-09-23T09:08:25.164Z,26.10
2017-09-23T09:10:52.764Z,26.07
2017-09-23T09:13:20.420Z,24.57
2017-09-23T09:15:50.630Z,25.03
2017-09-23T09:18:19.063Z,25.37
2017-09-23T09:20:47.334Z,23.93
2017-09-23T09:23:15.002Z,22.77
2017-09-23T09:25:42.667Z,23.87
2017-09-23T09:28:10.467Z,22.73
2017-09-23T09:30:38.124Z,28.10
2017-09-23T09:33:05.790Z,23.83
2017-09-23T09:35:34.400Z,21.90
2017-09-23T09:38:02.828Z,24.13
2017-09-23T09:40:30.491Z,21.77
2017-09-23T09:42:58.150Z,23.50
2017-09-23T09:45:25.760Z,23.13
2017-09-23T09:47:54.298Z,22.50
2017-09-23T09:50:22.013Z,22.53
2017-09-23T09:52:49.737Z,22.77
2017-09-23T09:55:17.627Z,23.17
2017-09-23T09:57:45.229Z,20.80
2017-09-23T10:00:12.821Z,20.23
2017-09-23T10:02:40.454Z,21.17
2017-09-23T10:05:08.095Z,20.87
2017-09-23T10:07:35.726Z,19.97
2017-09-23T10:10:03.337Z,19.50
2017-09-23T10:12:42.785Z,19.17
2017-09-23T10:15:10.443Z,18.13
2017-09-23T10:17:38.029Z,18.20
2017-09-23T10:20:05.751Z,20.13
2017-09-23T10:22:34.750Z,19.80
2017-09-23T10:25:02.381Z,25.63
2017-09-23T10:27:30.288Z,21.43
2017-09-23T10:29:57.905Z,23.13
2017-09-23T10:32:25.509Z,21.00
2017-09-23T10:34:53.181Z,22.00
2017-09-23T10:37:21.314Z,27.87
2017-09-23T10:39:48.933Z,20.83
2017-09-23T10:42:16.564Z,20.63
2017-09-23T10:44:44.177Z,22.03
2017-09-23T10:47:11.808Z,21.37
2017-09-23T10:49:39.505Z,21.23
2017-09-23T10:52:07.159Z,22.37
2017-09-23T10:54:34.748Z,23.87
2017-09-23T10:57:02.388Z,21.70
2017-09-23T10:59:31.098Z,23.87
2017-09-23T11:01:58.728Z,22.90
2017-09-23T11:04:27.044Z,23.40
2017-09-23T11:06:54.676Z,24.30
2017-09-23T11:09:23.435Z,25.97
2017-09-23T11:11:51.790Z,25.63
2017-09-23T11:14:19.455Z,25.23
2017-09-23T11:16:47.061Z,26.00
2017-09-23T11:19:14.731Z,26.30
2017-09-23T11:21:42.420Z,25.00
2017-09-23T11:24:10.041Z,26.57
2017-09-23T11:26:38.401Z,21.73
2017-09-23T11:29:06.059Z,23.07
2017-09-23T11:31:33.784Z,24.30
2017-09-23T11:34:01.442Z,23.13
2017-09-23T11:36:29.070Z,24.40
2017-09-23T11:38:56.660Z,24.60
2017-09-23T11:41:24.349Z,23.30
2017-09-23T11:43:51.976Z,22.63
2017-09-23T11:46:19.581Z,23.67
2017-09-23T11:48:47.973Z,21.70
2017-09-23T11:51:16.411Z,20.90
2017-09-23T11:53:44.063Z,21.60
2017-09-23T11:56:11.770Z,24.17
2017-09-23T11:58:39.387Z,24.30
2017-09-23T12:01:06.990Z,19.90
2017-09-23T12:03:34.580Z,22.17
2017-09-23T12:06:02.220Z,21.77
2017-09-23T12:08:29.860Z,20.50
2017-09-23T12:10:57.524Z,20.33
2017-09-23T12:13:25.152Z,20.53
2017-09-23T12:15:52.795Z,21.83
2017-09-23T12:18:20.413Z,19.67
2017-09-23T12:20:49.994Z,20.97
2017-09-23T12:23:17.602Z,19.17
2017-09-23T12:25:46.423Z,18.83
2017-09-23T12:28:13.995Z,19.40
2017-09-23T12:30:41.622Z,23.17
2017-09-23T12:33:09.972Z,18.07
2017-09-23T12:35:38.384Z,19.57
2017-09-23T12:38:05.960Z,18.70
2017-09-23T12:40:34.451Z,18.07
2017-09-23T12:43:02.102Z,16.70
2017-09-23T12:45:30.394Z,16.80
2017-09-23T12:47:58.817Z,17.33
2017-09-23T12:50:26.456Z,15.30
2017-09-23T12:52:54.366Z,17.23
2017-09-23T12:55:21.987Z,17.50
2017-09-23T12:57:49.588Z,15.90
2017-09-23T13:00:17.246Z,15.80
2017-09-23T13:02:44.938Z,15.70
2017-09-23T13:05:12.730Z,16.10
2017-09-23T13:07:40.528Z,14.17
2017-09-23T13:10:08.246Z,15.33
2017-09-23T13:12:35.895Z,16.13
2017-09-23T13:15:04.290Z,15.03
2017-09-23T13:17:32.000Z,15.30
2017-09-23T13:19:59.600Z,15.93
2017-09-23T13:22:27.428Z,15.10
2017-09-23T13:24:55.031Z,14.20
2017-09-23T13:27:23.334Z,16.80
2017-09-23T13:29:50.930Z,15.63
2017-09-23T13:32:18.535Z,13.53
2017-09-23T13:34:46.151Z,16.50
2017-09-23T13:37:13.795Z,15.50
2017-09-23T13:39:41.441Z,15.87
2017-09-23T13:42:09.088Z,15.03
2017-09-23T13:44:36.906Z,15.30
2017-09-23T13:47:04.542Z,14.93
2017-09-23T13:49:32.158Z,14.93
2017-09-23T13:52:00.735Z,16.90
2017-09-23T13:54:28.326Z,16.50
2017-09-23T13:56:55.959Z,16.20
2017-09-23T13:59:23.566Z,15.60
2017-09-23T14:01:52.280Z,15.90
2017-09-23T14:04:19.873Z,15.83
2017-09-23T14:06:47.477Z,19.57
2017-09-23T14:09:15.090Z,14.00
2017-09-23T14:11:42.691Z,17.20
2017-09-23T14:14:10.376Z,16.30
2017-09-23T14:16:38.915Z,17.27
2017-09-23T14:19:06.607Z,16.60
2017-09-23T14:21:34.247Z,18.30
2017-09-23T14:24:03.791Z,17.27
2017-09-23T14:26:33.304Z,18.30
2017-09-23T14:29:00.954Z,17.30
2017-09-23T14:31:28.767Z,17.37
2017-09-23T14:33:56.504Z,16.80
2017-09-23T14:36:24.967Z,20.47
2017-09-23T14:38:52.608Z,20.00
2017-09-23T14:41:20.325Z,18.70
2017-09-23T14:43:49.100Z,18.90
2017-09-23T14:46:16.797Z,17.70
2017-09-23T14:48:44.445Z,20.10
2017-09-23T14:51:12.068Z,18.80
2017-09-23T14:53:40.012Z,19.87
2017-09-23T14:56:08.608Z,18.13
2017-09-23T14:58:36.363Z,17.30
2017-09-23T15:01:04.919Z,19.77
2017-09-23T15:03:32.633Z,17.27
2017-09-23T15:06:00.381Z,17.97
2017-09-23T15:08:28.083Z,15.00
2017-09-23T15:10:56.052Z,17.03
2017-09-23T15:13:23.669Z,16.57
2017-09-23T15:15:51.413Z,16.90
2017-09-23T15:18:19.096Z,18.83
2017-09-23T15:20:46.742Z,18.00
2017-09-23T15:23:14.902Z,20.07
2017-09-23T15:25:42.554Z,18.57
2017-09-23T15:28:10.208Z,19.17
2017-09-23T15:30:37.963Z,20.73
2017-09-23T15:33:06.359Z,20.37
2017-09-23T15:35:34.029Z,19.33
2017-09-23T15:38:01.654Z,20.33
2017-09-23T15:40:29.373Z,21.00
2017-09-23T15:42:57.049Z,20.47
2017-09-23T15:45:25.450Z,18.37
2017-09-23T15:47:53.958Z,19.90
2017-09-23T15:50:21.576Z,19.33
2017-09-23T15:52:49.952Z,18.67
2017-09-23T15:55:17.560Z,20.23
2017-09-23T15:57:45.215Z,18.00
2017-09-23T16:00:12.836Z,20.30
2017-09-23T16:02:41.203Z,17.93
2017-09-23T16:05:08.820Z,19.17
2017-09-23T16:07:36.451Z,18.03
2017-09-23T16:10:04.064Z,18.33
2017-09-23T16:12:31.658Z,18.17
2017-09-23T16:14:59.300Z,20.20
2017-09-23T16:17:26.908Z,17.97
2017-09-23T16:19:54.870Z,18.67
2017-09-23T16:22:22.479Z,18.47
2017-09-23T16:24:50.129Z,16.93
2017-09-23T16:27:17.791Z,17.50
2017-09-23T16:29:45.426Z,17.77
2017-09-23T16:32:13.804Z,17.50
2017-09-23T16:34:42.140Z,17.83
2017-09-23T16:37:10.989Z,17.03
2017-09-23T16:39:38.603Z,18.37
2017-09-23T16:42:06.211Z,15.60
2017-09-23T16:44:33.866Z,16.80
2017-09-23T16:47:01.512Z,18.10
2017-09-23T16:49:29.905Z,18.47
2017-09-23T16:51:57.474Z,17.53
2017-09-23T16:54:25.115Z,16.40
2017-09-23T16:56:52.820Z,16.97
2017-09-23T16:59:20.493Z,16.07
2017-09-23T17:01:48.305Z,17.90
2017-09-23T17:04:16.678Z,17.00
2017-09-23T17:06:45.091Z,17.60
2017-09-23T17:09:12.765Z,17.20
2017-09-23T17:11:40.445Z,16.97
2017-09-23T17:14:08.104Z,16.67
2017-09-23T17:16:35.701Z,18.20
2017-09-23T17:19:04.120Z,17.60
2017-09-23T17:21:31.823Z,17.83
2017-09-23T17:23:59.751Z,16.80
2017-09-23T17:26:27.373Z,17.70
2017-09-23T17:28:55.002Z,19.60
2017-09-23T17:31:22.606Z,18.10
2017-09-23T17:33:51.022Z,18.43
2017-09-23T17:36:18.707Z,19.60
2017-09-23T17:38:46.451Z,17.93
2017-09-23T17:41:14.160Z,18.37
2017-09-23T17:43:42.512Z,19.33
2017-09-23T17:46:10.267Z,49.67
2017-09-23T17:48:38.654Z,20.67
2017-09-23T17:51:06.400Z,18.83
2017-09-23T17:53:34.093Z,18.70
2017-09-23T17:56:01.743Z,17.17
2017-09-23T17:58:29.376Z,20.90
2017-09-23T18:00:57.202Z,19.63
2017-09-23T18:03:25.821Z,17.73
2017-09-23T18:05:53.424Z,17.97
2017-09-23T18:08:21.111Z,18.63
2017-09-23T18:10:49.544Z,19.10
2017-09-23T18:13:17.171Z,19.63
2017-09-23T18:15:44.882Z,21.03
2017-09-23T18:18:12.531Z,22.60
2017-09-23T18:20:40.171Z,22.60
2017-09-23T18:23:07.917Z,23.10
2017-09-23T18:25:35.798Z,22.07
2017-09-23T18:28:03.850Z,20.87
2017-09-23T18:30:32.903Z,21.07
2017-09-23T18:33:00.513Z,20.50
2017-09-23T18:35:28.189Z,21.97
2017-09-23T18:37:56.039Z,21.73
2017-09-23T18:40:24.460Z,26.27
2017-09-23T18:42:52.307Z,22.90
2017-09-23T18:45:19.916Z,23.33
2017-09-23T18:47:47.547Z,25.20
2017-09-23T18:50:15.140Z,24.77
2017-09-23T18:52:42.777Z,23.60
2017-09-23T18:55:10.358Z,24.20
2017-09-23T18:57:37.996Z,25.30
2017-09-23T19:00:05.973Z,26.20
2017-09-23T19:02:33.545Z,25.60
2017-09-23T19:05:01.131Z,23.90
2017-09-23T19:07:29.561Z,25.67
2017-09-23T19:09:57.165Z,26.43
2017-09-23T19:12:25.574Z,27.73
2017-09-23T19:14:53.276Z,26.70
2017-09-23T19:17:20.899Z,26.10
2017-09-23T19:19:48.487Z,25.87
2017-09-23T19:22:16.831Z,22.97
2017-09-23T19:24:44.460Z,26.77
2017-09-23T19:27:12.108Z,28.60
2017-09-23T19:29:39.710Z,27.90
2017-09-23T19:32:07.531Z,25.73
2017-09-23T19:34:35.909Z,26.00
2017-09-23T19:37:05.260Z,29.00
2017-09-23T19:39:32.859Z,27.53
2017-09-23T19:42:01.265Z,27.03
2017-09-23T19:44:28.905Z,27.93
2017-09-23T19:46:57.289Z,29.97
2017-09-23T19:49:24.956Z,30.73
2017-09-23T19:51:52.564Z,28.00
2017-09-23T19:54:20.211Z,30.07
2017-09-23T19:56:48.514Z,29.93
2017-09-23T19:59:16.173Z,27.90
2017-09-23T20:01:43.803Z,29.33
2017-09-23T20:04:11.436Z,27.77
2017-09-23T20:06:39.799Z,30.00
2017-09-23T20:09:08.177Z,28.90
2017-09-23T20:11:35.742Z,29.83
2017-09-23T20:14:03.463Z,29.93
2017-09-23T20:16:31.120Z,30.40
2017-09-23T20:18:58.925Z,31.70
2017-09-23T20:21:26.989Z,29.50
2017-09-23T20:23:54.599Z,29.73
2017-09-23T20:26:22.249Z,28.30
2017-09-23T20:28:49.868Z,29.77
2017-09-23T20:31:17.463Z,29.60
2017-09-23T20:33:45.231Z,29.30
2017-09-23T20:36:13.585Z,28.80
2017-09-23T20:38:41.168Z,31.83
2017-09-23T20:41:09.523Z,32.97
2017-09-23T20:43:37.131Z,32.20
2017-09-23T20:46:04.773Z,31.33
2017-09-23T20:48:32.471Z,29.83
2017-09-23T20:51:00.121Z,31.70
2017-09-23T20:53:27.773Z,30.63
2017-09-23T20:55:55.466Z,32.47
2017-09-23T20:58:23.157Z,31.87
2017-09-23T21:00:50.866Z,32.83
2017-09-23T21:03:18.543Z,31.67
2017-09-23T21:05:47.147Z,32.97
2017-09-23T21:08:14.820Z,32.03
2017-09-23T21:10:42.629Z,30.03
2017-09-23T21:13:10.285Z,30.47
2017-09-23T21:15:37.993Z,32.83
2017-09-23T21:18:05.602Z,32.63
2017-09-23T21:20:33.971Z,34.10
2017-09-23T21:23:02.397Z,34.13
2017-09-23T21:25:30.031Z,35.00
2017-09-23T21:27:57.705Z,32.13
2017-09-23T21:30:25.332Z,33.40
2017-09-23T21:32:53.744Z,32.97
2017-09-23T21:35:21.450Z,34.17
2017-09-23T21:37:49.188Z,31.07
2017-09-23T21:40:16.829Z,33.30
2017-09-23T21:42:44.490Z,31.43
2017-09-23T21:45:12.103Z,33.43
2017-09-23T21:47:40.438Z,34.57
2017-09-23T21:50:08.074Z,33.30
2017-09-23T21:52:36.546Z,33.93
2017-09-23T21:55:04.972Z,33.27
2017-09-23T21:57:33.838Z,35.55
2017-09-23T22:00:01.602Z,35.00
2017-09-23T22:02:29.271Z,34.60
2017-09-23T22:04:57.738Z,35.35
2017-09-23T22:07:25.608Z,35.10
2017-09-23T22:09:53.330Z,35.10
2017-09-23T22:12:20.958Z,33.60
2017-09-23T22:14:48.580Z,33.80
2017-09-23T22:17:16.206Z,35.13
2017-09-23T22:19:43.876Z,32.90
2017-09-23T22:22:11.541Z,37.60
2017-09-23T22:24:39.193Z,35.22
2017-09-23T22:27:06.934Z,37.35
2017-09-23T22:29:35.293Z,34.75
2017-09-23T22:32:02.937Z,36.22
2017-09-23T22:34:30.548Z,35.40
2017-09-23T22:36:58.222Z,34.92
2017-09-23T22:39:25.829Z,33.35
2017-09-23T22:41:53.429Z,33.50
2017-09-23T22:44:21.048Z,34.65
2017-09-23T22:46:48.670Z,33.65
2017-09-23T22:49:16.286Z,34.10
2017-09-23T22:51:44.676Z,33.35
2017-09-23T22:54:13.080Z,34.83
2017-09-23T22:56:40.685Z,35.05
2017-09-23T22:59:08.301Z,34.88
2017-09-23T23:01:35.905Z,32.65
2017-09-23T23:04:03.504Z,31.25
2017-09-23T23:06:31.865Z,32.63
2017-09-23T23:09:00.276Z,33.42
2017-09-23T23:11:27.906Z,34.22
2017-09-23T23:13:55.500Z,34.42
2017-09-23T23:16:23.178Z,35.10
2017-09-23T23:18:50.756Z,33.38
2017-09-23T23:21:19.266Z,34.15
2017-09-23T23:23:46.865Z,34.45
2017-09-23T23:26:14.526Z,34.03
2017-09-23T23:28:42.124Z,30.77
2017-09-23T23:31:09.713Z,34.25
2017-09-23T23:33:37.328Z,34.08
2017-09-23T23:36:04.923Z,33.03
2017-09-23T23:38:32.553Z,32.75
2017-09-23T23:41:00.157Z,33.50
2017-09-23T23:43:28.525Z,34.55
2017-09-23T23:45:56.102Z,32.53
2017-09-23T23:48:24.549Z,34.00
2017-09-23T23:50:52.191Z,34.15
2017-09-23T23:53:19.801Z,32.65
2017-09-23T23:55:47.413Z,34.92
2017-09-23T23:58:15.122Z,34.25
